COYOTE (LAKE MENDOCINO) (COY)

Elevation: 720' · RUSSIAN R basin · Operator: US Army Corps of Engineers

Provisional data, subject to change.
Query executed Tuesday at 0:59:29   clock

Select a sensor type for a plot of data.
Note: Reservoir Flows are daily averages.

Earlier

Date RES ELE    STORAGE    RES CHG    TOC STO    ABV TOC    OUTFLOW    INFLOW    PPT INC    TEMP MN    TEMP MX    EVP PAN   
 FEET   AF   AF   AF   AF   CFS   CFS   INCHES   DEG F   DEG F   INCHES  
03/01/2015 737.17 67859 -50 68410 -551 114 94 0.00 0 21 0.13
03/02/2015 737.11 67759 -100 68410 -651 118 73 0.00 3 18 0.10
03/03/2015 737.04 67643 -116 68410 -767 122 69 0.00 1 21 0.12
03/04/2015 736.97 67527 -116 68410 -883 124 72 0.00 0 22 0.14
03/05/2015 736.88 67378 -149 68410 -1032 122 54 0.00 2 24 0.14
03/06/2015 736.81 67262 -116 68410 -1148 121 70 0.00 1 25 0.15
03/07/2015 736.72 67113 -149 68410 -1297 121 53 0.00 3 28 0.16
03/08/2015 736.64 66980 -133 68410 -1430 121 59 0.00 4 28 0.16
03/09/2015 736.58 66881 -99 68410 -1529 126 84 0.00 5 30 0.16
03/10/2015 736.47 66699 -182 68410 -1711 130 42 0.00 6 20 0.08
03/11/2015 736.45 66666 -33 68410 -1744 223 210 0.00 11 18 0.09
03/12/2015 736.38 66551 -115 68410 -1859 128 76 0.00 5 24 0.14
03/13/2015 736.30 66419 -132 68410 -1991 133 73 0.00 8 28 0.14
03/14/2015 736.21 66270 -149 68410 -2140 133 63 0.00 13 25 0.12
03/15/2015 736.13 66138 -132 68410 -2272 133 71 0.00 13 21 0.10
03/16/2015 736.06 66023 -115 68410 -2387 133 79 0.00 12 21 0.09
03/17/2015 735.98 65891 -132 68410 -2519 133 73 0.00 8 21 0.15
03/18/2015 735.90 65760 -- 68410 -2650 133 75 0.00 4 26 0.18
03/19/2015 735.82 65628 -132 68410 -2782 133 74 0.00 4 28 0.18
03/20/2015 735.73 65480 -148 68410 -2930 133 64 0.00 6 22 0.12
03/21/2015 735.66 65365 -115 68410 -3045 133 82 0.00 8 24 0.17
03/22/2015 735.61 65283 -82 68410 -3127 133 96 0.23 10 18 0.09
03/23/2015 735.53 65152 -131 68410 -3258 128 68 0.02 8 18 0.13
03/24/2015 735.50 65103 -49 68410 -3307 133 112 0.36 9 18 0.09
03/25/2015 735.42 64971 -132 68410 -3439 128 70 0.03 5 25 0.17
03/26/2015 735.36 64873 -98 68410 -3537 129 89 0.04 8 31 0.20
03/27/2015 735.26 64709 -164 68410 -3701 132 59 0.00 9 26 0.19
03/28/2015 -- -- -- -- -- -- -- -- -- -- --
03/29/2015 -- -- -- -- -- -- -- -- -- -- --
03/30/2015 -- -- -- -- -- -- -- -- -- -- --
03/31/2015 -- -- -- -- -- -- -- -- -- -- --

Later | Latest

Warning! This data is preliminary and subject to revision.

Show COY Map | Plot COY Data | 1 Month COY Data | Real-Time COY Data | COY Info